Time;durP1;ratioP1;P1;durP2;ratioP2;P2;SDS_P1;SDS_P2;PMS_P1;PMS_P2;Temp;Humidity;BMP_temperature;BMP_pressure;BME280_temperature;BME280_humidity;BME280_pressure;Samples;Min_cycle;Max_cycle;Signal;HPM_P1;HPM_P2
2023/08/02 00:00:47;;;;;;;8.27;7.33;;;;;;;;;;5011407;28;20198;-82
2023/08/02 00:03:16;;;;;;;11.03;4.10;;;;;;;;;;5011960;28;20216;-82
2023/08/02 00:05:52;;;;;;;16.53;6.97;;;;;;;;;;5011748;28;20247;-83
2023/08/02 00:08:20;;;;;;;11.17;4.30;;;;;;;;;;5010941;28;20207;-85
2023/08/02 00:10:49;;;;;;;11.77;4.23;;;;;;;;;;5011457;28;20200;-85
2023/08/02 00:13:18;;;;;;;6.00;2.67;;;;;;;;;;5011489;28;20278;-85
2023/08/02 00:15:48;;;;;;;20.73;7.57;;;;;;;;;;5012782;28;20203;-85
2023/08/02 00:18:16;;;;;;;14.60;4.30;;;;;;;;;;5014616;28;20192;-85
2023/08/02 00:20:45;;;;;;;10.83;4.73;;;;;;;;;;5014795;28;20215;-85
2023/08/02 00:23:14;;;;;;;14.67;4.50;;;;;;;;;;5015764;28;20249;-85
2023/08/02 00:25:42;;;;;;;13.93;6.53;;;;;;;;;;5015069;28;20202;-85
2023/08/02 00:28:10;;;;;;;11.53;4.23;;;;;;;;;;5014703;28;20206;-82
2023/08/02 00:30:44;;;;;;;12.80;4.77;;;;;;;;;;5015214;28;20192;-82
2023/08/02 00:33:15;;;;;;;13.27;5.30;;;;;;;;;;5014781;28;20212;-85
2023/08/02 00:35:44;;;;;;;15.97;5.73;;;;;;;;;;5014934;28;20299;-85
2023/08/02 00:38:12;;;;;;;14.90;6.73;;;;;;;;;;5014980;28;20278;-85
2023/08/02 00:40:41;;;;;;;13.20;6.07;;;;;;;;;;5014779;28;20321;-85
2023/08/02 00:43:09;;;;;;;11.73;5.40;;;;;;;;;;5014544;28;20192;-85
2023/08/02 00:45:38;;;;;;;14.77;5.27;;;;;;;;;;5014633;28;20201;-85
2023/08/02 00:48:06;;;;;;;14.30;5.53;;;;;;;;;;5014727;28;20234;-85
2023/08/02 00:50:37;;;;;;;12.43;4.80;;;;;;;;;;5014545;28;20199;-82
2023/08/02 00:53:05;;;;;;;8.93;5.40;;;;;;;;;;5014252;28;20214;-82
2023/08/02 00:55:34;;;;;;;12.43;4.07;;;;;;;;;;5014786;28;20222;-82
2023/08/02 00:58:03;;;;;;;14.73;5.93;;;;;;;;;;5014637;28;20258;-82
2023/08/02 01:00:31;;;;;;;12.20;3.53;;;;;;;;;;5014541;28;20472;-82
2023/08/02 01:02:59;;;;;;;13.93;6.10;;;;;;;;;;5014189;28;20234;-85
2023/08/02 01:05:29;;;;;;;12.33;6.73;;;;;;;;;;5014263;28;20270;-85
2023/08/02 01:08:00;;;;;;;16.37;7.37;;;;;;;;;;5014236;28;20243;-85
2023/08/02 01:10:31;;;;;;;10.33;4.90;;;;;;;;;;5013704;28;20204;-85
2023/08/02 01:13:01;;;;;;;15.10;6.93;;;;;;;;;;5014268;28;20207;-85
2023/08/02 01:15:30;;;;;;;13.87;5.00;;;;;;;;;;5014001;28;20198;-85
2023/08/02 01:17:58;;;;;;;8.53;4.40;;;;;;;;;;5014325;28;20210;-85
2023/08/02 01:20:28;;;;;;;14.73;6.27;;;;;;;;;;5013735;28;20247;-85
2023/08/02 01:22:57;;;;;;;16.43;5.67;;;;;;;;;;5014057;28;20220;-85
2023/08/02 01:25:26;;;;;;;14.80;5.77;;;;;;;;;;5014165;28;20214;-85
2023/08/02 01:27:55;;;;;;;14.80;6.60;;;;;;;;;;5012020;28;20213;-85
2023/08/02 01:30:24;;;;;;;14.33;6.13;;;;;;;;;;5013535;28;20201;-85
2023/08/02 01:32:53;;;;;;;15.67;6.27;;;;;;;;;;5013750;28;20198;-85
2023/08/02 01:35:22;;;;;;;15.67;6.57;;;;;;;;;;5013734;28;20203;-85
2023/08/02 01:37:52;;;;;;;3.23;2.33;;;;;;;;;;5013276;28;20206;-85
2023/08/02 01:40:21;;;;;;;9.40;5.20;;;;;;;;;;5014009;28;20234;-82
2023/08/02 01:42:49;;;;;;;10.80;5.97;;;;;;;;;;5013734;28;20260;-82
2023/08/02 01:45:17;;;;;;;9.77;4.63;;;;;;;;;;5013304;28;20206;-83
2023/08/02 01:47:47;;;;;;;11.60;7.27;;;;;;;;;;5013691;28;20284;-82
2023/08/02 01:50:16;;;;;;;4.53;3.30;;;;;;;;;;5014195;28;20202;-82
2023/08/02 01:52:48;;;;;;;17.97;6.73;;;;;;;;;;5013659;28;20219;-82
2023/08/02 01:55:19;;;;;;;10.50;6.50;;;;;;;;;;5013327;28;20223;-82
2023/08/02 01:57:47;;;;;;;13.40;7.53;;;;;;;;;;5013552;28;20208;-82
2023/08/02 02:00:16;;;;;;;12.83;5.87;;;;;;;;;;5013639;28;20227;-83
2023/08/02 02:02:45;;;;;;;8.70;4.60;;;;;;;;;;5013464;28;20202;-82
2023/08/02 02:05:13;;;;;;;16.20;7.17;;;;;;;;;;5013094;28;20243;-82
2023/08/02 02:07:42;;;;;;;13.90;6.40;;;;;;;;;;5013259;28;20199;-82
2023/08/02 02:10:10;;;;;;;17.10;6.27;;;;;;;;;;5013064;28;20197;-82
2023/08/02 02:12:40;;;;;;;12.37;6.63;;;;;;;;;;5012964;28;20209;-82
2023/08/02 02:15:09;;;;;;;9.33;5.90;;;;;;;;;;5013307;28;20233;-82
2023/08/02 02:17:38;;;;;;;16.47;6.67;;;;;;;;;;5013255;28;20301;-85
2023/08/02 02:20:07;;;;;;;17.17;8.60;;;;;;;;;;5012506;28;20226;-85
2023/08/02 02:22:35;;;;;;;12.30;7.80;;;;;;;;;;5012848;28;20196;-85
2023/08/02 02:25:04;;;;;;;16.53;5.97;;;;;;;;;;5012839;28;20208;-85
2023/08/02 02:27:32;;;;;;;10.03;4.77;;;;;;;;;;5012835;28;20197;-85
2023/08/02 02:30:02;;;;;;;18.37;8.03;;;;;;;;;;5012244;28;20295;-85
2023/08/02 02:32:31;;;;;;;10.03;6.00;;;;;;;;;;5012817;28;20226;-85
2023/08/02 02:34:59;;;;;;;12.63;6.10;;;;;;;;;;5012672;28;20262;-82
2023/08/02 02:37:28;;;;;;;12.40;6.43;;;;;;;;;;5012592;28;20210;-82
2023/08/02 02:39:56;;;;;;;12.63;7.30;;;;;;;;;;5012094;28;20290;-82
2023/08/02 02:42:25;;;;;;;11.93;6.27;;;;;;;;;;5013338;28;20207;-82
2023/08/02 02:44:53;;;;;;;12.73;7.07;;;;;;;;;;5013149;28;20209;-82
2023/08/02 02:47:23;;;;;;;18.07;6.50;;;;;;;;;;5012529;28;20201;-82
2023/08/02 02:49:51;;;;;;;17.57;7.73;;;;;;;;;;5012707;28;20209;-82
2023/08/02 02:52:20;;;;;;;15.33;7.40;;;;;;;;;;5013430;28;20199;-82
2023/08/02 02:54:48;;;;;;;11.10;5.80;;;;;;;;;;5012826;28;20214;-82
2023/08/02 02:57:17;;;;;;;19.50;6.87;;;;;;;;;;5012674;28;20214;-82
2023/08/02 02:59:46;;;;;;;14.20;6.60;;;;;;;;;;5013509;28;20219;-82
2023/08/02 03:02:14;;;;;;;19.17;8.03;;;;;;;;;;5012950;28;20234;-82
2023/08/02 03:04:44;;;;;;;13.10;6.50;;;;;;;;;;5012457;28;20285;-82
2023/08/02 03:07:15;;;;;;;10.20;6.23;;;;;;;;;;5012543;28;20202;-82
2023/08/02 03:09:44;;;;;;;11.10;5.33;;;;;;;;;;5012960;28;20204;-82
2023/08/02 03:12:12;;;;;;;14.90;6.57;;;;;;;;;;5012405;28;20206;-85
2023/08/02 03:14:41;;;;;;;13.53;6.07;;;;;;;;;;5012310;28;20209;-85
2023/08/02 03:17:10;;;;;;;14.87;6.60;;;;;;;;;;5012395;28;20277;-85
2023/08/02 03:19:39;;;;;;;15.50;6.33;;;;;;;;;;5011731;28;20194;-85
2023/08/02 03:22:08;;;;;;;15.23;7.30;;;;;;;;;;5011655;28;20226;-85
2023/08/02 03:24:37;;;;;;;16.33;6.53;;;;;;;;;;5012150;28;20211;-85
2023/08/02 03:27:06;;;;;;;12.73;6.87;;;;;;;;;;5012647;28;20237;-82
2023/08/02 03:29:35;;;;;;;9.47;5.97;;;;;;;;;;5012651;28;20207;-82
2023/08/02 03:32:04;;;;;;;12.00;7.67;;;;;;;;;;5012211;28;20271;-83
2023/08/02 03:34:32;;;;;;;9.70;4.47;;;;;;;;;;5012481;28;20206;-82
2023/08/02 03:37:01;;;;;;;15.10;6.67;;;;;;;;;;5012559;28;20210;-82
2023/08/02 03:39:30;;;;;;;12.07;7.83;;;;;;;;;;5012372;28;20264;-82
2023/08/02 03:41:59;;;;;;;19.23;9.20;;;;;;;;;;5012776;28;20222;-81
2023/08/02 03:44:27;;;;;;;20.33;9.70;;;;;;;;;;5012392;28;20218;-81
2023/08/02 03:46:56;;;;;;;16.57;6.90;;;;;;;;;;5012580;28;20217;-81
2023/08/02 03:49:24;;;;;;;13.93;7.57;;;;;;;;;;5011630;28;20214;-82
2023/08/02 03:51:53;;;;;;;6.50;3.23;;;;;;;;;;5015615;28;20205;-82
2023/08/02 03:54:21;;;;;;;12.13;7.10;;;;;;;;;;5015907;28;20206;-81
2023/08/02 03:56:51;;;;;;;11.70;5.50;;;;;;;;;;5015831;28;20201;-81
2023/08/02 03:59:19;;;;;;;18.27;5.67;;;;;;;;;;5015542;28;20211;-81
2023/08/02 04:01:48;;;;;;;11.97;7.57;;;;;;;;;;5015848;28;20220;-81
2023/08/02 04:04:16;;;;;;;14.77;8.60;;;;;;;;;;5015892;28;20232;-82
2023/08/02 04:06:45;;;;;;;1.97;1.83;;;;;;;;;;5015326;28;20210;-82
2023/08/02 04:09:14;;;;;;;12.97;6.43;;;;;;;;;;5016132;28;20218;-82
2023/08/02 04:11:42;;;;;;;14.57;8.07;;;;;;;;;;5016025;28;20245;-81
2023/08/02 04:14:12;;;;;;;15.73;7.60;;;;;;;;;;5016167;28;20214;-82
2023/08/02 04:16:41;;;;;;;17.97;7.20;;;;;;;;;;5015992;28;20209;-81
2023/08/02 04:19:10;;;;;;;7.07;2.97;;;;;;;;;;5015875;28;20308;-82
2023/08/02 04:21:39;;;;;;;11.63;7.43;;;;;;;;;;5015772;28;20227;-85
2023/08/02 04:24:07;;;;;;;15.07;4.90;;;;;;;;;;5014813;28;20206;-84
2023/08/02 04:26:36;;;;;;;9.60;4.43;;;;;;;;;;5014728;28;20191;-84
2023/08/02 04:29:04;;;;;;;12.50;6.30;;;;;;;;;;5015387;28;20198;-85
2023/08/02 04:31:34;;;;;;;12.40;6.37;;;;;;;;;;5014956;28;20206;-84
2023/08/02 04:34:02;;;;;;;9.53;4.60;;;;;;;;;;5014739;28;20305;-84
2023/08/02 04:36:32;;;;;;;14.97;7.10;;;;;;;;;;5014983;28;20210;-84
2023/08/02 04:39:03;;;;;;;9.47;5.33;;;;;;;;;;5014723;28;20203;-84
2023/08/02 04:41:32;;;;;;;11.53;6.00;;;;;;;;;;5014616;28;20224;-84
2023/08/02 04:44:00;;;;;;;16.87;5.97;;;;;;;;;;5014692;28;20202;-84
2023/08/02 04:46:29;;;;;;;15.00;8.33;;;;;;;;;;5015081;28;20272;-85
2023/08/02 04:48:59;;;;;;;11.30;5.27;;;;;;;;;;5014692;28;20202;-84
2023/08/02 04:51:27;;;;;;;11.77;6.20;;;;;;;;;;5014321;28;20199;-84
2023/08/02 04:53:56;;;;;;;15.80;6.40;;;;;;;;;;5015216;28;20201;-84
2023/08/02 04:56:24;;;;;;;8.10;5.67;;;;;;;;;;5014290;28;20189;-84
2023/08/02 04:58:53;;;;;;;22.90;5.83;;;;;;;;;;5014725;28;20211;-84
2023/08/02 05:01:21;;;;;;;9.47;5.33;;;;;;;;;;5014744;28;20209;-81
2023/08/02 05:03:50;;;;;;;10.23;5.30;;;;;;;;;;5014812;28;20214;-85
2023/08/02 05:06:19;;;;;;;11.43;7.00;;;;;;;;;;5013940;28;20275;-84
2023/08/02 05:08:48;;;;;;;10.00;5.80;;;;;;;;;;5013968;28;20195;-84
2023/08/02 05:11:16;;;;;;;11.60;7.43;;;;;;;;;;5014071;28;20233;-84
2023/08/02 05:13:45;;;;;;;15.43;8.00;;;;;;;;;;5014923;28;20206;-84
2023/08/02 05:16:14;;;;;;;11.83;7.37;;;;;;;;;;5014373;28;20301;-82
2023/08/02 05:18:42;;;;;;;11.03;6.60;;;;;;;;;;5014499;28;20206;-83
2023/08/02 05:21:11;;;;;;;5.33;3.47;;;;;;;;;;5014866;28;20216;-82
2023/08/02 05:23:41;;;;;;;1.23;1.13;;;;;;;;;;5014606;28;20215;-82
2023/08/02 05:26:10;;;;;;;11.47;7.27;;;;;;;;;;5014140;28;20206;-82
2023/08/02 05:28:38;;;;;;;2.57;2.33;;;;;;;;;;5014263;28;20228;-82
2023/08/02 05:31:11;;;;;;;6.07;3.83;;;;;;;;;;5014359;28;20203;-82
2023/08/02 05:33:40;;;;;;;7.17;5.93;;;;;;;;;;5014209;28;20233;-82
2023/08/02 05:36:11;;;;;;;9.53;6.37;;;;;;;;;;5013814;28;20214;-82
2023/08/02 05:38:41;;;;;;;9.03;6.57;;;;;;;;;;5014641;28;20214;-82
2023/08/02 05:41:10;;;;;;;11.17;8.20;;;;;;;;;;5013914;28;20202;-82
2023/08/02 05:43:41;;;;;;;9.17;5.83;;;;;;;;;;5013644;28;20226;-85
2023/08/02 05:46:10;;;;;;;6.63;4.13;;;;;;;;;;5013088;28;20413;-85
2023/08/02 05:48:38;;;;;;;4.17;2.37;;;;;;;;;;5013183;28;20241;-85
2023/08/02 05:51:07;;;;;;;7.17;4.43;;;;;;;;;;5013628;28;20198;-85
2023/08/02 05:53:35;;;;;;;3.20;2.20;;;;;;;;;;5012889;28;20195;-85
2023/08/02 05:56:06;;;;;;;1.67;1.57;;;;;;;;;;5013407;28;20511;-85
2023/08/02 05:58:34;;;;;;;3.50;2.57;;;;;;;;;;5013153;28;20202;-82
2023/08/02 06:01:02;;;;;;;5.00;2.60;;;;;;;;;;5013839;28;20285;-82
2023/08/02 06:03:34;;;;;;;3.10;2.53;;;;;;;;;;5013505;28;20241;-82
2023/08/02 06:06:03;;;;;;;0.53;0.53;;;;;;;;;;5013434;28;20238;-82
2023/08/02 06:08:32;;;;;;;7.47;2.50;;;;;;;;;;5013493;28;20212;-82
2023/08/02 06:11:01;;;;;;;1.77;0.97;;;;;;;;;;5013369;28;20268;-82
2023/08/02 06:13:31;;;;;;;2.77;1.23;;;;;;;;;;5012830;28;20286;-81
2023/08/02 06:15:59;;;;;;;3.13;2.23;;;;;;;;;;5013641;28;20226;-82
2023/08/02 06:18:28;;;;;;;5.67;2.17;;;;;;;;;;5012941;28;20199;-82
2023/08/02 06:20:56;;;;;;;3.53;2.87;;;;;;;;;;5013376;28;20253;-81
2023/08/02 06:23:25;;;;;;;8.03;4.30;;;;;;;;;;5012814;28;20321;-82
2023/08/02 06:25:53;;;;;;;6.83;4.40;;;;;;;;;;5013126;28;20260;-82
2023/08/02 06:28:22;;;;;;;15.53;5.83;;;;;;;;;;5012998;28;20204;-82
2023/08/02 06:30:52;;;;;;;16.60;5.43;;;;;;;;;;5013378;28;20210;-82
2023/08/02 06:33:20;;;;;;;5.03;2.83;;;;;;;;;;5013097;28;20224;-82
2023/08/02 06:35:49;;;;;;;5.93;4.70;;;;;;;;;;5012800;28;20206;-82
2023/08/02 06:38:17;;;;;;;5.80;4.00;;;;;;;;;;5012345;28;20210;-85
2023/08/02 06:40:46;;;;;;;4.40;2.73;;;;;;;;;;5012609;28;20253;-85
2023/08/02 06:43:14;;;;;;;5.73;5.13;;;;;;;;;;5012319;28;20285;-85
2023/08/02 06:45:46;;;;;;;4.97;4.30;;;;;;;;;;5012039;28;20194;-85
2023/08/02 06:48:18;;;;;;;12.33;5.73;;;;;;;;;;5012598;28;20212;-84
2023/08/02 06:50:46;;;;;;;6.13;3.20;;;;;;;;;;5012832;28;20213;-85
2023/08/02 06:53:15;;;;;;;4.20;3.50;;;;;;;;;;5012201;28;20202;-85
2023/08/02 06:55:43;;;;;;;6.63;3.87;;;;;;;;;;5011995;28;20203;-85
2023/08/02 06:58:12;;;;;;;6.47;4.73;;;;;;;;;;5012430;28;20290;-85
2023/08/02 07:00:41;;;;;;;2.57;2.37;;;;;;;;;;5012870;28;20385;-85
2023/08/02 07:03:10;;;;;;;7.20;4.80;;;;;;;;;;5012001;28;20242;-87
2023/08/02 07:05:40;;;;;;;3.17;2.47;;;;;;;;;;5012189;28;20237;-85
2023/08/02 07:08:08;;;;;;;6.90;3.60;;;;;;;;;;5012277;28;20210;-85
2023/08/02 07:10:37;;;;;;;8.00;3.93;;;;;;;;;;5012073;28;20195;-85
2023/08/02 07:13:05;;;;;;;1.93;1.73;;;;;;;;;;5012092;28;20206;-85
2023/08/02 07:15:34;;;;;;;5.73;5.23;;;;;;;;;;5012229;28;20211;-85
2023/08/02 07:18:02;;;;;;;2.73;2.50;;;;;;;;;;5012344;28;20215;-85
2023/08/02 07:20:31;;;;;;;4.90;4.10;;;;;;;;;;5012542;28;20233;-85
2023/08/02 07:23:03;;;;;;;5.87;2.83;;;;;;;;;;5012215;28;20309;-86
2023/08/02 07:25:32;;;;;;;4.13;2.13;;;;;;;;;;5013631;28;20207;-85
2023/08/02 07:28:01;;;;;;;5.57;3.67;;;;;;;;;;5017324;28;20214;-87
2023/08/02 07:30:29;;;;;;;1.70;1.53;;;;;;;;;;5016123;28;20191;-85
2023/08/02 07:32:58;;;;;;;2.57;2.20;;;;;;;;;;5016573;28;20198;-85
2023/08/02 07:35:26;;;;;;;2.43;2.23;;;;;;;;;;5016262;28;20198;-84
2023/08/02 07:37:55;;;;;;;4.70;2.27;;;;;;;;;;5016695;28;20303;-86
2023/08/02 07:40:26;;;;;;;1.70;1.60;;;;;;;;;;5015983;28;20199;-85
2023/08/02 07:42:55;;;;;;;4.23;2.50;;;;;;;;;;5016067;28;20219;-86
2023/08/02 07:45:25;;;;;;;3.30;2.10;;;;;;;;;;5015767;28;20204;-85
2023/08/02 07:47:53;;;;;;;3.10;2.20;;;;;;;;;;5015266;28;20199;-85
2023/08/02 07:50:22;;;;;;;3.97;1.60;;;;;;;;;;5015868;28;20196;-85
2023/08/02 07:52:52;;;;;;;2.63;1.57;;;;;;;;;;5016046;28;20200;-85
2023/08/02 07:55:20;;;;;;;1.67;1.40;;;;;;;;;;5015710;28;20200;-86
2023/08/02 07:57:51;;;;;;;2.50;1.67;;;;;;;;;;5015828;28;20203;-83
2023/08/02 08:00:20;;;;;;;2.23;1.90;;;;;;;;;;5015983;28;20203;-82
2023/08/02 08:02:48;;;;;;;0.80;0.80;;;;;;;;;;5016014;28;20304;-82
2023/08/02 08:05:17;;;;;;;1.20;1.10;;;;;;;;;;5015723;28;20273;-82
2023/08/02 08:07:45;;;;;;;4.23;2.37;;;;;;;;;;5015942;28;20190;-82
2023/08/02 08:10:14;;;;;;;3.83;2.47;;;;;;;;;;5016196;28;20226;-82
2023/08/02 08:12:43;;;;;;;3.07;2.07;;;;;;;;;;5016087;28;20242;-82
2023/08/02 08:15:13;;;;;;;0.97;0.97;;;;;;;;;;5015975;28;20195;-82
2023/08/02 08:17:41;;;;;;;1.70;1.43;;;;;;;;;;5016071;28;20215;-82
2023/08/02 08:20:10;;;;;;;3.73;1.70;;;;;;;;;;5016071;28;20204;-82
2023/08/02 08:22:39;;;;;;;1.97;1.60;;;;;;;;;;5015698;28;20206;-82
2023/08/02 08:25:08;;;;;;;1.33;1.23;;;;;;;;;;5015332;28;20281;-82
2023/08/02 08:27:36;;;;;;;1.50;1.40;;;;;;;;;;5015319;28;20269;-82
2023/08/02 08:30:05;;;;;;;0.80;0.80;;;;;;;;;;5015909;28;20207;-82
2023/08/02 08:32:35;;;;;;;1.07;1.00;;;;;;;;;;5015394;28;20200;-82
2023/08/02 08:35:04;;;;;;;1.70;1.27;;;;;;;;;;5015839;28;20207;-82
2023/08/02 08:37:34;;;;;;;2.83;1.30;;;;;;;;;;5014806;28;20196;-82
2023/08/02 08:40:03;;;;;;;2.50;1.60;;;;;;;;;;5015585;28;20236;-82
2023/08/02 08:42:34;;;;;;;0.40;0.40;;;;;;;;;;5015532;28;20208;-82
2023/08/02 08:45:03;;;;;;;0.50;0.50;;;;;;;;;;5015025;28;20212;-82
2023/08/02 08:47:32;;;;;;;0.60;0.60;;;;;;;;;;5015540;28;20213;-81
2023/08/02 08:50:04;;;;;;;0.50;0.50;;;;;;;;;;5014719;28;20207;-82
2023/08/02 08:52:35;;;;;;;0.80;0.80;;;;;;;;;;5015368;28;20203;-82
2023/08/02 08:55:06;;;;;;;1.23;1.13;;;;;;;;;;5014971;28;20218;-82
2023/08/02 08:57:34;;;;;;;0.70;0.70;;;;;;;;;;5015659;28;20305;-82
2023/08/02 09:00:07;;;;;;;0.60;0.60;;;;;;;;;;5015133;28;20204;-82
2023/08/02 09:02:35;;;;;;;0.70;0.70;;;;;;;;;;5015358;28;20199;-82
2023/08/02 09:05:06;;;;;;;1.50;1.10;;;;;;;;;;5015128;28;20261;-82
2023/08/02 09:07:34;;;;;;;3.03;1.73;;;;;;;;;;5014765;28;20226;-82
2023/08/02 09:10:03;;;;;;;1.40;1.30;;;;;;;;;;5014790;28;20208;-83
2023/08/02 09:12:43;;;;;;;1.90;1.80;;;;;;;;;;5015153;28;20203;-82
2023/08/02 09:15:12;;;;;;;1.43;1.33;;;;;;;;;;5015002;28;20286;-82
2023/08/02 09:17:47;;;;;;;1.40;1.30;;;;;;;;;;5014724;28;20195;-82
2023/08/02 09:20:17;;;;;;;2.10;1.90;;;;;;;;;;5014913;28;20203;-82
2023/08/02 09:22:46;;;;;;;1.10;1.07;;;;;;;;;;5014707;28;20219;-82
2023/08/02 09:25:21;;;;;;;2.60;2.40;;;;;;;;;;5013949;28;20227;-82
2023/08/02 09:27:50;;;;;;;2.37;2.17;;;;;;;;;;5014794;28;20199;-83
2023/08/02 09:30:29;;;;;;;3.10;2.33;;;;;;;;;;5014690;28;20210;-82
2023/08/02 09:33:01;;;;;;;3.27;2.97;;;;;;;;;;5014388;28;20210;-82
2023/08/02 09:35:34;;;;;;;2.30;2.10;;;;;;;;;;5014723;28;20227;-82
2023/08/02 09:38:09;;;;;;;3.10;2.90;;;;;;;;;;5014644;28;20203;-83
2023/08/02 09:40:38;;;;;;;4.07;3.50;;;;;;;;;;5014069;28;20207;-83
2023/08/02 09:43:27;;;;;;;2.77;2.57;;;;;;;;;;5013825;28;20200;-82
2023/08/02 09:45:55;;;;;;;3.73;3.43;;;;;;;;;;5014046;28;20219;-85
2023/08/02 09:48:35;;;;;;;3.23;2.97;;;;;;;;;;5012949;28;20200;-85
2023/08/02 09:51:08;;;;;;;6.87;3.20;;;;;;;;;;5013837;28;20203;-86
2023/08/02 09:53:37;;;;;;;3.67;2.97;;;;;;;;;;5013772;28;20199;-86
2023/08/02 09:56:06;;;;;;;4.17;3.77;;;;;;;;;;5014000;28;20202;-86
2023/08/02 09:58:37;;;;;;;4.33;3.93;;;;;;;;;;5013492;28;20199;-85
2023/08/02 10:01:06;;;;;;;6.77;4.67;;;;;;;;;;5013964;28;20287;-85
2023/08/02 10:03:35;;;;;;;4.57;4.13;;;;;;;;;;5014256;28;20234;-85
2023/08/02 10:06:06;;;;;;;2.27;1.90;;;;;;;;;;5013325;28;20244;-85
2023/08/02 10:08:37;;;;;;;2.20;1.93;;;;;;;;;;5013230;28;20204;-85
2023/08/02 10:11:06;;;;;;;2.77;1.57;;;;;;;;;;5013221;28;20198;-85
2023/08/02 10:13:37;;;;;;;5.57;3.27;;;;;;;;;;5013739;28;20250;-85
2023/08/02 10:16:06;;;;;;;3.23;1.70;;;;;;;;;;5013667;28;20204;-85
2023/08/02 10:18:36;;;;;;;2.43;1.63;;;;;;;;;;5013223;28;20280;-85
2023/08/02 10:21:05;;;;;;;10.23;1.77;;;;;;;;;;5013456;28;20204;-86
2023/08/02 10:23:33;;;;;;;8.10;3.00;;;;;;;;;;5013417;28;20196;-85
2023/08/02 10:26:04;;;;;;;8.63;2.37;;;;;;;;;;5013217;28;20216;-85
2023/08/02 10:28:33;;;;;;;7.93;2.67;;;;;;;;;;5012730;28;20200;-87
2023/08/02 10:31:07;;;;;;;13.33;3.97;;;;;;;;;;5013567;28;20201;-85
2023/08/02 10:33:37;;;;;;;9.67;3.23;;;;;;;;;;5012977;28;20209;-85
2023/08/02 10:36:06;;;;;;;13.57;4.13;;;;;;;;;;5013213;28;20196;-85
2023/08/02 10:38:52;;;;;;;11.43;3.13;;;;;;;;;;5011776;28;20209;-85
2023/08/02 10:41:23;;;;;;;2.40;1.60;;;;;;;;;;5013039;28;20208;-84
2023/08/02 10:44:11;;;;;;;13.53;3.93;;;;;;;;;;5012763;28;20197;-84
2023/08/02 10:46:40;;;;;;;10.33;3.47;;;;;;;;;;5013126;28;20203;-86
2023/08/02 10:49:28;;;;;;;14.63;3.60;;;;;;;;;;5013117;28;20222;-84
2023/08/02 10:51:57;;;;;;;6.83;2.53;;;;;;;;;;5012597;28;20218;-85
2023/08/02 10:54:26;;;;;;;9.33;3.17;;;;;;;;;;5012740;28;20222;-83
2023/08/02 10:57:18;;;;;;;9.60;7.57;;;;;;;;;;5013054;28;20205;-82
2023/08/02 10:59:49;;;;;;;10.17;2.80;;;;;;;;;;5003059;28;20210;-82
2023/08/02 11:02:17;;;;;;;15.00;2.27;;;;;;;;;;5012682;28;20229;-81
2023/08/02 11:04:47;;;;;;;12.63;2.67;;;;;;;;;;5012448;28;20215;-82
2023/08/02 11:07:18;;;;;;;8.90;2.20;;;;;;;;;;5013058;28;20205;-82
2023/08/02 11:09:47;;;;;;;4.63;2.07;;;;;;;;;;5013123;28;20217;-83
2023/08/02 11:12:16;;;;;;;1.90;0.93;;;;;;;;;;5012582;28;20251;-82
2023/08/02 11:14:45;;;;;;;3.90;0.90;;;;;;;;;;5013212;28;20240;-82
2023/08/02 11:17:18;;;;;;;5.47;2.00;;;;;;;;;;5012516;28;20231;-82
2023/08/02 11:20:00;;;;;;;2.13;1.40;;;;;;;;;;5012704;28;20204;-82
2023/08/02 11:22:36;;;;;;;3.43;1.60;;;;;;;;;;5012593;28;20188;-85
2023/08/02 11:25:06;;;;;;;7.60;2.27;;;;;;;;;;5012802;28;20318;-85
2023/08/02 11:27:35;;;;;;;6.33;2.47;;;;;;;;;;5012753;28;20206;-82
2023/08/02 11:30:08;;;;;;;7.63;2.20;;;;;;;;;;5012611;28;20298;-83
2023/08/02 11:32:44;;;;;;;9.63;3.30;;;;;;;;;;5012917;28;20211;-83
2023/08/02 11:35:16;;;;;;;5.63;2.57;;;;;;;;;;5012621;28;20206;-83
2023/08/02 11:37:45;;;;;;;3.47;2.60;;;;;;;;;;5012360;28;20200;-82
2023/08/02 11:40:17;;;;;;;2.80;1.00;;;;;;;;;;5012503;28;20206;-82
2023/08/02 11:42:54;;;;;;;3.37;1.17;;;;;;;;;;5012886;28;20209;-82
2023/08/02 11:45:30;;;;;;;5.40;1.97;;;;;;;;;;5012859;28;20227;-82
2023/08/02 11:48:00;;;;;;;5.63;2.47;;;;;;;;;;5012399;28;20204;-82
2023/08/02 11:50:32;;;;;;;12.87;3.13;;;;;;;;;;5012679;28;20191;-82
2023/08/02 11:53:04;;;;;;;5.60;1.67;;;;;;;;;;5012805;28;20237;-81
2023/08/02 11:55:35;;;;;;;3.53;1.87;;;;;;;;;;5012576;28;20210;-82
2023/08/02 11:58:05;;;;;;;9.17;2.20;;;;;;;;;;5012283;28;20226;-86
2023/08/02 12:00:34;;;;;;;2.30;2.00;;;;;;;;;;5012152;28;20197;-85
2023/08/02 12:03:11;;;;;;;14.43;3.10;;;;;;;;;;5012403;28;20293;-85
2023/08/02 12:05:41;;;;;;;7.00;2.27;;;;;;;;;;5011498;28;20232;-84
2023/08/02 12:08:11;;;;;;;8.20;3.23;;;;;;;;;;5012635;28;20228;-85
2023/08/02 12:10:40;;;;;;;6.83;2.60;;;;;;;;;;5012157;28;20204;-86
2023/08/02 12:13:09;;;;;;;4.63;3.17;;;;;;;;;;5014547;28;20192;-84
2023/08/02 12:15:38;;;;;;;10.83;3.47;;;;;;;;;;5015695;28;20222;-86
2023/08/02 12:18:07;;;;;;;6.70;2.33;;;;;;;;;;5015072;28;20217;-84
2023/08/02 12:20:38;;;;;;;10.37;2.00;;;;;;;;;;5015348;28;20236;-84
2023/08/02 12:23:06;;;;;;;8.40;1.93;;;;;;;;;;5015291;28;20212;-85
2023/08/02 12:25:47;;;;;;;8.37;2.73;;;;;;;;;;5015519;28;20270;-84
2023/08/02 12:28:15;;;;;;;10.37;3.00;;;;;;;;;;5015216;28;20211;-84
2023/08/02 12:30:59;;;;;;;12.80;4.20;;;;;;;;;;5015218;28;20210;-84
2023/08/02 12:33:27;;;;;;;8.17;2.17;;;;;;;;;;5014571;28;20210;-84
2023/08/02 12:35:57;;;;;;;3.97;2.00;;;;;;;;;;5015195;28;20195;-84
2023/08/02 12:38:29;;;;;;;7.07;2.37;;;;;;;;;;5014793;28;20207;-84
2023/08/02 12:40:58;;;;;;;13.60;3.57;;;;;;;;;;5015068;28;20212;-85
2023/08/02 12:43:27;;;;;;;8.43;2.77;;;;;;;;;;5014845;28;20219;-85
2023/08/02 12:45:55;;;;;;;4.33;1.80;;;;;;;;;;5015308;28;20259;-85
2023/08/02 12:48:24;;;;;;;5.27;1.83;;;;;;;;;;5014008;28;20211;-85
2023/08/02 12:50:52;;;;;;;7.87;2.80;;;;;;;;;;5014703;28;20231;-85
2023/08/02 12:53:22;;;;;;;10.87;3.20;;;;;;;;;;5014367;28;20204;-84
2023/08/02 12:55:51;;;;;;;8.70;3.17;;;;;;;;;;5014391;28;20200;-85
2023/08/02 12:58:22;;;;;;;8.40;2.63;;;;;;;;;;5013767;28;20196;-85
2023/08/02 13:00:51;;;;;;;3.00;1.73;;;;;;;;;;5014043;28;20196;-85
2023/08/02 13:03:20;;;;;;;6.83;2.13;;;;;;;;;;5014594;28;20227;-85
2023/08/02 13:05:49;;;;;;;8.13;2.50;;;;;;;;;;5013630;28;20251;-85
2023/08/02 13:08:18;;;;;;;7.30;1.70;;;;;;;;;;5014312;28;20200;-85
2023/08/02 13:10:48;;;;;;;12.03;3.10;;;;;;;;;;5014146;28;20206;-85
2023/08/02 13:13:17;;;;;;;5.97;2.20;;;;;;;;;;5014247;28;20246;-85
2023/08/02 13:15:46;;;;;;;9.83;3.20;;;;;;;;;;5013862;28;20204;-84
2023/08/02 13:18:14;;;;;;;16.07;5.10;;;;;;;;;;5013969;28;20208;-83
2023/08/02 13:20:43;;;;;;;10.73;3.80;;;;;;;;;;5013997;28;20195;-84
2023/08/02 13:23:12;;;;;;;3.93;1.93;;;;;;;;;;5012552;28;20310;-84
2023/08/02 13:25:40;;;;;;;10.43;3.43;;;;;;;;;;5014029;28;20215;-83
2023/08/02 13:28:10;;;;;;;11.10;2.10;;;;;;;;;;5013977;28;20216;-84
2023/08/02 13:30:39;;;;;;;16.13;3.97;;;;;;;;;;5014200;28;20208;-84
2023/08/02 13:33:07;;;;;;;9.63;2.47;;;;;;;;;;5014057;28;20266;-82
2023/08/02 13:35:36;;;;;;;8.77;4.10;;;;;;;;;;5014507;28;20207;-82
2023/08/02 13:38:04;;;;;;;4.80;2.07;;;;;;;;;;5014316;28;20199;-82
2023/08/02 13:40:33;;;;;;;8.77;2.97;;;;;;;;;;5013686;28;20275;-82
2023/08/02 13:43:01;;;;;;;9.73;2.30;;;;;;;;;;5014183;28;20216;-82
2023/08/02 13:45:31;;;;;;;7.07;2.23;;;;;;;;;;5014412;28;20203;-82
2023/08/02 13:48:02;;;;;;;7.40;2.10;;;;;;;;;;5014262;28;20231;-82
2023/08/02 13:50:32;;;;;;;8.17;2.77;;;;;;;;;;5013962;28;20227;-82
2023/08/02 13:53:00;;;;;;;10.37;3.93;;;;;;;;;;5014308;28;20208;-82
2023/08/02 13:55:29;;;;;;;7.27;2.27;;;;;;;;;;5014032;28;20215;-82
2023/08/02 13:57:58;;;;;;;10.60;2.30;;;;;;;;;;5013971;28;20202;-82
2023/08/02 14:00:26;;;;;;;12.70;3.27;;;;;;;;;;5013154;28;20290;-81
2023/08/02 14:03:01;;;;;;;11.43;3.00;;;;;;;;;;5014001;28;20219;-82
2023/08/02 14:05:30;;;;;;;11.53;3.90;;;;;;;;;;5013486;28;20232;-83
2023/08/02 14:07:58;;;;;;;18.60;3.87;;;;;;;;;;5013517;28;20318;-83
2023/08/02 14:10:27;;;;;;;21.07;6.13;;;;;;;;;;5013827;28;20210;-83
2023/08/02 14:12:58;;;;;;;12.10;2.87;;;;;;;;;;5013901;28;20203;-83
2023/08/02 14:15:28;;;;;;;10.03;2.80;;;;;;;;;;5013352;28;20204;-83
2023/08/02 14:17:57;;;;;;;16.07;4.27;;;;;;;;;;5013128;28;20193;-83
2023/08/02 14:20:27;;;;;;;6.40;2.43;;;;;;;;;;5013441;28;20211;-82
2023/08/02 14:22:55;;;;;;;15.90;3.67;;;;;;;;;;5013831;28;20205;-82
2023/08/02 14:25:24;;;;;;;11.73;3.70;;;;;;;;;;5013470;28;20220;-82
2023/08/02 14:27:53;;;;;;;9.27;1.87;;;;;;;;;;5013647;28;20247;-82
2023/08/02 14:30:23;;;;;;;10.17;2.17;;;;;;;;;;5013485;28;20208;-83
2023/08/02 14:32:51;;;;;;;12.07;2.93;;;;;;;;;;5013161;28;20264;-83
2023/08/02 14:35:23;;;;;;;4.90;1.53;;;;;;;;;;5013084;28;20200;-82
2023/08/02 14:37:53;;;;;;;11.20;3.00;;;;;;;;;;5013468;28;20239;-82
2023/08/02 14:40:27;;;;;;;10.17;3.97;;;;;;;;;;5013301;28;20299;-83
2023/08/02 14:42:55;;;;;;;2.87;0.83;;;;;;;;;;5013511;28;20234;-82
2023/08/02 14:45:24;;;;;;;4.17;1.50;;;;;;;;;;5013271;28;20285;-81
2023/08/02 14:47:53;;;;;;;3.73;1.60;;;;;;;;;;5013002;28;20223;-82
2023/08/02 14:50:21;;;;;;;13.13;4.07;;;;;;;;;;5012676;28;20238;-82
2023/08/02 14:52:50;;;;;;;7.23;3.70;;;;;;;;;;5012970;28;20300;-83